Time;durP1;ratioP1;P1;durP2;ratioP2;P2;SDS_P1;SDS_P2;PMS_P1;PMS_P2;Temp;Humidity;BMP_temperature;BMP_pressure;BME280_temperature;BME280_humidity;BME280_pressure;Samples;Min_cycle;Max_cycle;Signal;HPM_P1;HPM_P2
2021/11/04 00:00:34;;;;;;;14.30;13.30;;;7.50;99.90;;;;;;5016025;28;20199;-77
2021/11/04 00:03:02;;;;;;;14.50;13.30;;;7.60;99.90;;;;;;5015996;28;20575;-78
2021/11/04 00:05:29;;;;;;;14.70;13.70;;;7.60;99.90;;;;;;5015585;28;20218;-77
2021/11/04 00:07:58;;;;;;;16.23;14.93;;;7.70;99.90;;;;;;5015752;28;20281;-77
2021/11/04 00:10:27;;;;;;;15.43;14.23;;;7.70;99.90;;;;;;5015829;28;20210;-77
2021/11/04 00:12:54;;;;;;;15.60;14.30;;;7.70;99.90;;;;;;5016020;28;20667;-77
2021/11/04 00:15:21;;;;;;;16.70;15.50;;;7.70;99.90;;;;;;5006381;28;20663;-77
2021/11/04 00:17:48;;;;;;;16.13;14.83;;;7.70;99.90;;;;;;5015518;28;20745;-78
2021/11/04 00:20:16;;;;;;;16.37;15.17;;;7.70;99.90;;;;;;5006099;28;20616;-77
2021/11/04 00:22:44;;;;;;;15.50;14.30;;;7.60;99.90;;;;;;5013399;28;20199;-77
2021/11/04 00:25:11;;;;;;;15.53;14.40;;;7.60;99.90;;;;;;5015210;28;20222;-77
2021/11/04 00:27:39;;;;;;;16.30;14.70;;;7.60;99.90;;;;;;5015431;28;20217;-77
2021/11/04 00:30:08;;;;;;;15.60;14.40;;;7.50;99.90;;;;;;5015260;28;20208;-77
2021/11/04 00:32:35;;;;;;;15.37;14.07;;;7.50;99.90;;;;;;5015656;28;20212;-77
2021/11/04 00:35:02;;;;;;;14.53;13.53;;;7.50;99.90;;;;;;5015489;28;20227;-77
2021/11/04 00:37:29;;;;;;;13.87;12.87;;;7.50;99.90;;;;;;5006022;28;20206;-77
2021/11/04 00:39:56;;;;;;;16.73;15.43;;;7.50;99.90;;;;;;5006741;28;20284;-77
2021/11/04 00:42:23;;;;;;;15.40;14.20;;;7.50;99.90;;;;;;5006207;28;20210;-77
2021/11/04 00:44:51;;;;;;;15.80;14.60;;;7.50;99.90;;;;;;5014082;28;20306;-77
2021/11/04 00:47:17;;;;;;;15.67;14.50;;;7.50;99.90;;;;;;5014912;28;20280;-77
2021/11/04 00:49:44;;;;;;;14.00;13.10;;;7.50;99.90;;;;;;5014658;28;20633;-77
2021/11/04 00:52:11;;;;;;;15.00;13.90;;;7.50;99.90;;;;;;5015120;28;20246;-77
2021/11/04 00:54:38;;;;;;;15.33;14.23;;;7.50;99.90;;;;;;5015251;28;20221;-78
2021/11/04 00:57:05;;;;;;;14.10;13.20;;;7.60;99.90;;;;;;5015115;28;20192;-77
2021/11/04 00:59:32;;;;;;;14.23;13.23;;;7.50;99.90;;;;;;5014694;28;20283;-77
2021/11/04 01:02:00;;;;;;;14.47;13.47;;;7.60;99.90;;;;;;5005443;28;20206;-77
2021/11/04 01:04:27;;;;;;;14.10;13.10;;;7.50;99.90;;;;;;5014962;28;20579;-78
2021/11/04 01:06:54;;;;;;;14.33;13.33;;;7.50;99.90;;;;;;5014749;28;20209;-77
2021/11/04 01:09:20;;;;;;;14.50;13.43;;;7.50;99.90;;;;;;5015007;28;20296;-77
2021/11/04 01:11:47;;;;;;;14.03;13.03;;;7.50;99.90;;;;;;5005350;28;20252;-77
2021/11/04 01:14:14;;;;;;;13.83;12.93;;;7.50;99.90;;;;;;5005478;28;20237;-76
2021/11/04 01:16:41;;;;;;;14.97;13.87;;;7.40;99.90;;;;;;5008640;28;20237;-77
2021/11/04 01:19:12;;;;;;;15.43;14.33;;;7.50;99.90;;;;;;5014727;28;20677;-78
2021/11/04 01:21:39;;;;;;;14.93;13.87;;;7.50;99.90;;;;;;5014931;28;20199;-77
2021/11/04 01:24:06;;;;;;;15.17;14.07;;;7.50;99.90;;;;;;5014633;28;20198;-77
2021/11/04 01:26:33;;;;;;;15.20;14.00;;;7.50;99.90;;;;;;5005325;28;20210;-77
2021/11/04 01:29:00;;;;;;;14.87;13.77;;;7.50;99.90;;;;;;5014516;28;20199;-77
2021/11/04 01:31:27;;;;;;;14.73;13.63;;;7.50;99.90;;;;;;5014656;28;20203;-77
2021/11/04 01:33:54;;;;;;;15.50;14.40;;;7.50;99.90;;;;;;5014525;28;20313;-78
2021/11/04 01:36:22;;;;;;;15.23;14.13;;;7.50;99.90;;;;;;4999243;28;20276;-77
2021/11/04 01:38:48;;;;;;;15.70;14.57;;;7.50;99.90;;;;;;5004887;28;20623;-76
2021/11/04 01:41:16;;;;;;;15.43;14.33;;;7.50;99.90;;;;;;5013638;28;20207;-77
2021/11/04 01:43:43;;;;;;;13.90;12.90;;;7.40;99.90;;;;;;5012718;28;20194;-77
2021/11/04 01:46:10;;;;;;;15.67;14.57;;;7.40;99.90;;;;;;5000867;28;20220;-77
2021/11/04 01:48:37;;;;;;;15.83;14.73;;;7.40;99.90;;;;;;5014359;28;20194;-77
2021/11/04 01:51:04;;;;;;;14.33;13.33;;;7.50;99.90;;;;;;5014508;28;20194;-77
2021/11/04 01:53:32;;;;;;;14.43;13.43;;;7.50;99.90;;;;;;5026695;28;20288;-77
2021/11/04 01:55:59;;;;;;;14.50;13.40;;;7.40;99.90;;;;;;5014378;28;20780;-77
2021/11/04 01:58:26;;;;;;;14.43;13.43;;;7.40;99.90;;;;;;5014116;28;20252;-77
2021/11/04 02:00:54;;;;;;;13.73;12.83;;;7.40;99.90;;;;;;5013872;28;20194;-77
2021/11/04 02:03:29;;;;;;;13.93;13.03;;;7.40;99.90;;;;;;5008782;28;20274;-77
2021/11/04 02:06:04;;;;;;;13.13;12.30;;;7.40;99.90;;;;;;5014502;28;20297;-77
2021/11/04 02:08:42;;;;;;;12.60;11.70;;;7.40;99.90;;;;;;4996837;28;20292;-77
2021/11/04 02:11:11;;;;;;;13.17;12.37;;;7.30;99.90;;;;;;5013961;28;20262;-77
2021/11/04 02:13:46;;;;;;;13.73;12.83;;;7.30;99.90;;;;;;5000361;28;20202;-77
2021/11/04 02:16:17;;;;;;;12.93;12.13;;;7.30;99.90;;;;;;5014581;28;20226;-77
2021/11/04 02:18:45;;;;;;;13.13;12.23;;;7.30;99.90;;;;;;5014784;28;20205;-77
2021/11/04 02:21:18;;;;;;;12.50;11.70;;;7.30;99.90;;;;;;5014285;28;20281;-77
2021/11/04 02:23:52;;;;;;;12.27;11.47;;;7.30;99.90;;;;;;5014162;28;20210;-77
2021/11/04 02:26:23;;;;;;;11.50;10.70;;;7.30;99.90;;;;;;5013999;28;20280;-78
2021/11/04 02:28:53;;;;;;;11.93;11.13;;;7.30;99.90;;;;;;5013835;28;20198;-76
2021/11/04 02:31:20;;;;;;;12.13;11.33;;;7.30;99.90;;;;;;5001158;28;20205;-77
2021/11/04 02:33:47;;;;;;;13.07;12.10;;;7.30;99.90;;;;;;5014076;28;20267;-77
2021/11/04 02:36:14;;;;;;;11.67;10.63;;;7.30;99.90;;;;;;5004721;28;20654;-77
2021/11/04 02:38:42;;;;;;;11.73;11.00;;;7.30;99.90;;;;;;5011757;28;20259;-77
2021/11/04 02:41:09;;;;;;;10.93;10.10;;;7.20;99.90;;;;;;5015123;28;20194;-76
2021/11/04 02:43:37;;;;;;;9.67;9.07;;;7.20;99.90;;;;;;5014532;28;20197;-77
2021/11/04 02:46:05;;;;;;;10.70;10.10;;;7.20;99.90;;;;;;5000423;28;20214;-77
2021/11/04 02:48:32;;;;;;;10.53;9.93;;;7.10;99.90;;;;;;5013932;28;20268;-77
2021/11/04 02:50:59;;;;;;;11.00;10.30;;;7.10;99.90;;;;;;4998402;28;20648;-77
2021/11/04 02:53:28;;;;;;;10.40;9.80;;;7.00;99.90;;;;;;5015061;28;20200;-77
2021/11/04 02:55:57;;;;;;;10.90;10.20;;;7.00;99.90;;;;;;5014295;28;20305;-77
2021/11/04 02:58:25;;;;;;;10.63;10.03;;;6.90;99.90;;;;;;5014360;28;20197;-77
2021/11/04 03:00:56;;;;;;;10.63;10.03;;;6.90;99.90;;;;;;5001965;28;20578;-78
2021/11/04 03:03:23;;;;;;;10.87;10.27;;;6.90;99.90;;;;;;5019238;28;20207;-76
2021/11/04 03:05:50;;;;;;;10.70;10.10;;;6.90;99.90;;;;;;5029149;28;20220;-76
2021/11/04 03:08:17;;;;;;;10.80;10.20;;;6.90;99.90;;;;;;5014400;28;20224;-77
2021/11/04 03:10:44;;;;;;;11.27;10.67;;;6.90;99.90;;;;;;5014523;28;20679;-78
2021/11/04 03:13:12;;;;;;;10.53;9.93;;;6.80;99.90;;;;;;5004444;28;20193;-76
2021/11/04 03:15:41;;;;;;;10.60;10.00;;;6.80;99.90;;;;;;5038546;22;20263;-80
2021/11/04 03:18:10;;;;;;;10.70;10.10;;;6.80;99.90;;;;;;5052144;28;20200;-80
2021/11/04 03:20:38;;;;;;;12.47;11.80;;;6.70;99.90;;;;;;5034070;28;20254;-80
2021/11/04 03:23:07;;;;;;;13.03;12.33;;;6.70;99.90;;;;;;5040640;28;20262;-80
2021/11/04 03:25:34;;;;;;;13.17;12.47;;;6.70;99.90;;;;;;5028212;28;20227;-80
2021/11/04 03:28:03;;;;;;;13.23;12.53;;;6.60;99.90;;;;;;5030580;28;20220;-80
2021/11/04 03:30:35;;;;;;;13.17;12.47;;;6.70;99.90;;;;;;5033377;28;20210;-80
2021/11/04 03:33:03;;;;;;;13.00;12.30;;;6.60;99.90;;;;;;5040771;28;20196;-80
2021/11/04 03:35:34;;;;;;;13.40;12.70;;;6.60;99.90;;;;;;5040150;28;20223;-80
2021/11/04 03:38:02;;;;;;;13.37;12.67;;;6.60;99.90;;;;;;5018154;28;20197;-79
2021/11/04 03:40:30;;;;;;;13.63;12.93;;;6.60;99.90;;;;;;5037605;28;20196;-80
2021/11/04 03:42:57;;;;;;;12.43;11.63;;;6.60;99.90;;;;;;5039969;28;20680;-78
2021/11/04 03:45:25;;;;;;;12.50;11.80;;;6.50;99.90;;;;;;5020631;28;20229;-78
2021/11/04 03:47:53;;;;;;;12.90;12.20;;;6.50;99.90;;;;;;5029202;28;20591;-78
2021/11/04 03:50:21;;;;;;;13.50;12.80;;;6.50;99.90;;;;;;5039570;28;20214;-78
2021/11/04 03:52:50;;;;;;;12.63;11.93;;;6.50;99.90;;;;;;5037016;28;20188;-78
2021/11/04 03:55:17;;;;;;;12.60;11.90;;;6.50;99.90;;;;;;5016066;28;20221;-77
2021/11/04 03:57:46;;;;;;;12.93;12.23;;;6.40;99.90;;;;;;5037954;28;20700;-77
2021/11/04 04:00:15;;;;;;;13.73;12.97;;;6.40;99.90;;;;;;5036713;28;20208;-77
2021/11/04 04:02:46;;;;;;;13.30;12.60;;;6.50;99.90;;;;;;5033634;28;20235;-79
2021/11/04 04:05:14;;;;;;;12.73;12.03;;;6.40;99.90;;;;;;5043886;28;20685;-78
2021/11/04 04:07:42;;;;;;;13.10;12.40;;;6.40;99.90;;;;;;5031545;28;20224;-82
2021/11/04 04:10:10;;;;;;;12.87;12.17;;;6.40;99.90;;;;;;5032906;28;20196;-78
2021/11/04 04:12:37;;;;;;;12.57;11.87;;;6.40;99.90;;;;;;5038777;28;20189;-79
2021/11/04 04:15:05;;;;;;;12.57;11.87;;;6.40;99.90;;;;;;5028226;28;20278;-80
2021/11/04 04:17:32;;;;;;;12.10;11.40;;;6.40;99.90;;;;;;5030670;28;20201;-80
2021/11/04 04:19:58;;;;;;;13.20;12.40;;;6.30;99.90;;;;;;5030390;28;20574;-81
2021/11/04 04:22:25;;;;;;;12.40;11.70;;;6.40;99.90;;;;;;5023442;28;20204;-81
2021/11/04 04:24:52;;;;;;;12.40;11.70;;;6.30;99.90;;;;;;5036062;28;20597;-80
2021/11/04 04:27:20;;;;;;;12.10;11.40;;;6.30;99.90;;;;;;5033275;28;20693;-79
2021/11/04 04:29:47;;;;;;;12.20;11.50;;;6.30;99.90;;;;;;5025168;28;20617;-79
2021/11/04 04:32:14;;;;;;;12.90;12.20;;;6.30;99.90;;;;;;5013935;28;20209;-79
2021/11/04 04:34:42;;;;;;;12.10;11.40;;;6.30;99.90;;;;;;5033940;28;20782;-79
2021/11/04 04:37:09;;;;;;;12.57;11.80;;;6.30;99.90;;;;;;5021689;28;20196;-79
2021/11/04 04:39:37;;;;;;;12.13;11.40;;;6.30;99.90;;;;;;5020509;28;20634;-79
2021/11/04 04:42:04;;;;;;;12.70;11.97;;;6.30;99.90;;;;;;5035039;28;20589;-79
2021/11/04 04:44:33;;;;;;;12.97;12.27;;;6.30;99.90;;;;;;5028146;28;20718;-79
2021/11/04 04:47:00;;;;;;;13.23;12.43;;;6.20;99.90;;;;;;5028390;28;20226;-79
2021/11/04 04:49:27;;;;;;;12.33;11.63;;;6.20;99.90;;;;;;5025958;28;20207;-79
2021/11/04 04:51:54;;;;;;;12.50;11.70;;;6.30;99.90;;;;;;5035432;28;20207;-79
2021/11/04 04:54:21;;;;;;;13.10;12.40;;;6.20;99.90;;;;;;5035357;28;20196;-79
2021/11/04 04:56:48;;;;;;;13.03;12.23;;;6.20;99.90;;;;;;5025222;28;20243;-79
2021/11/04 04:59:15;;;;;;;12.30;11.60;;;6.20;99.90;;;;;;5034916;28;20480;-79
2021/11/04 05:01:43;;;;;;;12.60;11.80;;;6.20;99.90;;;;;;5034466;28;20231;-79
2021/11/04 05:04:10;;;;;;;12.90;12.20;;;6.20;99.90;;;;;;5034750;28;20218;-79
2021/11/04 05:06:37;;;;;;;13.50;12.70;;;6.20;99.90;;;;;;5034859;28;20278;-79
2021/11/04 05:09:04;;;;;;;13.00;12.20;;;6.20;99.90;;;;;;5034643;28;20487;-79
2021/11/04 05:11:30;;;;;;;14.07;13.27;;;6.20;99.90;;;;;;5022690;28;20242;-79
2021/11/04 05:13:57;;;;;;;13.10;12.30;;;6.20;99.90;;;;;;5015383;28;20203;-79
2021/11/04 05:16:24;;;;;;;14.13;13.20;;;6.20;99.90;;;;;;5034554;28;20495;-79
2021/11/04 05:18:52;;;;;;;13.93;13.13;;;6.20;99.90;;;;;;5016921;28;20548;-79
2021/11/04 05:21:19;;;;;;;14.43;13.50;;;6.20;99.90;;;;;;5034941;28;20196;-80
2021/11/04 05:23:46;;;;;;;13.60;12.80;;;6.20;99.90;;;;;;5025817;28;20608;-79
2021/11/04 05:26:13;;;;;;;14.40;13.50;;;6.20;99.90;;;;;;5029080;28;20221;-80
2021/11/04 05:28:41;;;;;;;14.03;13.23;;;6.20;99.90;;;;;;5021985;28;20266;-80
2021/11/04 05:31:07;;;;;;;13.87;13.07;;;6.10;99.90;;;;;;5037107;28;20204;-79
2021/11/04 05:33:34;;;;;;;13.60;12.80;;;6.10;99.90;;;;;;5025099;28;20267;-79
2021/11/04 05:36:02;;;;;;;13.23;12.43;;;6.10;99.90;;;;;;5026307;28;20269;-79
2021/11/04 05:38:29;;;;;;;13.20;12.40;;;6.10;99.90;;;;;;5035008;28;20235;-79
2021/11/04 05:40:56;;;;;;;13.20;12.40;;;6.10;99.90;;;;;;5028649;28;20196;-79
2021/11/04 05:43:23;;;;;;;12.77;12.07;;;6.10;99.90;;;;;;5024977;28;20309;-80
2021/11/04 05:45:49;;;;;;;13.60;12.80;;;6.00;99.90;;;;;;5007582;28;20211;-79
2021/11/04 05:48:16;;;;;;;13.23;12.33;;;6.10;99.90;;;;;;5022078;28;20274;-79
2021/11/04 05:50:43;;;;;;;13.20;12.40;;;6.10;99.90;;;;;;5034227;28;20196;-79
2021/11/04 05:53:11;;;;;;;13.47;12.57;;;6.10;99.90;;;;;;5034509;28;20624;-79
2021/11/04 05:55:38;;;;;;;13.20;12.40;;;6.10;99.90;;;;;;5034270;28;20262;-79
2021/11/04 05:58:05;;;;;;;13.47;12.67;;;6.10;99.90;;;;;;5033376;28;20192;-79
2021/11/04 06:00:32;;;;;;;12.97;12.17;;;6.10;99.90;;;;;;5033423;28;20193;-79
2021/11/04 06:02:59;;;;;;;12.83;12.00;;;6.10;99.90;;;;;;5034012;28;20250;-79
2021/11/04 06:05:26;;;;;;;14.03;13.17;;;6.10;99.90;;;;;;5023948;28;20220;-79
2021/11/04 06:07:53;;;;;;;13.87;13.07;;;6.20;99.90;;;;;;5024460;28;20599;-80
2021/11/04 06:10:21;;;;;;;13.90;13.10;;;6.10;99.90;;;;;;5033571;28;20192;-81
2021/11/04 06:12:48;;;;;;;13.33;12.60;;;6.20;99.90;;;;;;5033260;28;20217;-79
2021/11/04 06:15:15;;;;;;;14.47;13.57;;;6.20;99.90;;;;;;5019238;28;20278;-79
2021/11/04 06:17:42;;;;;;;13.40;12.67;;;6.20;99.90;;;;;;5019708;28;20196;-79
2021/11/04 06:20:10;;;;;;;14.20;13.30;;;6.20;99.90;;;;;;5022845;28;20200;-79
2021/11/04 06:22:36;;;;;;;14.60;13.70;;;6.20;99.90;;;;;;5031750;28;20230;-79
2021/11/04 06:25:04;;;;;;;14.50;13.60;;;6.20;99.90;;;;;;5022831;28;20223;-79
2021/11/04 06:27:32;;;;;;;14.23;13.43;;;6.20;99.90;;;;;;5031009;28;20204;-79
2021/11/04 06:29:59;;;;;;;14.17;13.33;;;6.20;99.90;;;;;;5025249;28;20194;-79
2021/11/04 06:32:26;;;;;;;14.40;13.60;;;6.30;99.90;;;;;;5032733;28;20586;-79
2021/11/04 06:34:52;;;;;;;14.50;13.70;;;6.30;99.90;;;;;;5028373;28;20232;-79
2021/11/04 06:37:19;;;;;;;14.07;13.27;;;6.30;99.90;;;;;;5024215;28;20588;-80
2021/11/04 06:39:46;;;;;;;14.13;13.13;;;6.20;99.90;;;;;;5033349;28;20616;-79
2021/11/04 06:42:13;;;;;;;14.37;13.57;;;6.30;99.90;;;;;;5021766;28;20204;-79
2021/11/04 06:44:41;;;;;;;13.60;12.80;;;6.30;99.90;;;;;;5023734;28;20204;-79
2021/11/04 06:47:18;;;;;;;13.57;12.77;;;6.30;99.90;;;;;;5027884;28;20196;-79
2021/11/04 06:49:50;;;;;;;13.80;13.00;;;6.30;99.90;;;;;;5023293;28;20323;-80
2021/11/04 06:52:24;;;;;;;14.13;13.33;;;6.30;99.90;;;;;;5021871;28;20220;-79
2021/11/04 06:54:52;;;;;;;14.00;13.20;;;6.30;99.90;;;;;;5001813;28;20223;-80
2021/11/04 06:57:20;;;;;;;13.13;12.43;;;6.30;99.90;;;;;;5036088;28;20253;-79
2021/11/04 06:59:50;;;;;;;13.43;12.63;;;6.30;99.90;;;;;;5033723;28;20213;-79
2021/11/04 07:02:33;;;;;;;12.93;12.03;;;6.40;99.90;;;;;;5033382;28;20204;-79
2021/11/04 07:05:00;;;;;;;12.70;12.00;;;6.40;99.90;;;;;;5032054;28;20220;-80
2021/11/04 07:07:27;;;;;;;13.20;12.30;;;6.40;99.90;;;;;;5034947;28;20273;-79
2021/11/04 07:09:55;;;;;;;13.30;12.50;;;6.40;99.90;;;;;;5017216;28;20215;-79
2021/11/04 07:12:22;;;;;;;12.80;12.10;;;6.40;99.90;;;;;;5020241;28;20216;-79
2021/11/04 07:14:50;;;;;;;12.50;11.80;;;6.40;99.90;;;;;;5024510;28;20581;-79
2021/11/04 07:17:17;;;;;;;12.70;11.90;;;6.40;99.90;;;;;;5017242;28;20210;-79
2021/11/04 07:19:46;;;;;;;13.17;12.27;;;6.40;99.90;;;;;;5032541;28;20587;-79
2021/11/04 07:22:37;;;;;;;13.17;12.37;;;6.40;99.90;;;;;;5032460;28;20646;-79
2021/11/04 07:25:07;;;;;;;12.50;11.80;;;6.50;99.90;;;;;;5023118;28;20228;-79
2021/11/04 07:27:41;;;;;;;12.60;11.80;;;6.50;99.90;;;;;;5025027;28;20207;-79
2021/11/04 07:30:12;;;;;;;12.80;12.10;;;6.60;99.90;;;;;;5024276;28;20362;-79
2021/11/04 07:32:46;;;;;;;12.40;11.70;;;6.50;99.90;;;;;;5024401;28;20204;-79
2021/11/04 07:35:13;;;;;;;12.80;12.10;;;6.50;99.90;;;;;;5018624;28;20580;-79
2021/11/04 07:37:40;;;;;;;12.60;11.90;;;6.50;99.90;;;;;;5032215;28;20193;-79
2021/11/04 07:40:08;;;;;;;12.60;11.90;;;6.60;99.90;;;;;;5018282;28;20196;-79
2021/11/04 07:42:36;;;;;;;12.00;11.40;;;6.60;99.90;;;;;;5032466;28;20196;-79
2021/11/04 07:45:03;;;;;;;12.10;11.40;;;6.60;99.90;;;;;;5032358;28;20218;-79
2021/11/04 07:47:32;;;;;;;12.43;11.73;;;6.60;99.90;;;;;;5032527;28;20736;-79
2021/11/04 07:49:58;;;;;;;12.47;11.77;;;6.60;99.90;;;;;;5022995;28;20685;-79
2021/11/04 07:52:26;;;;;;;12.40;11.70;;;6.60;99.90;;;;;;5022959;28;20687;-79
2021/11/04 07:54:53;;;;;;;12.17;11.47;;;6.70;99.90;;;;;;5018370;28;20278;-79
2021/11/04 07:57:19;;;;;;;12.33;11.63;;;6.70;99.90;;;;;;5021000;28;20209;-79
2021/11/04 07:59:46;;;;;;;11.93;11.27;;;6.70;99.90;;;;;;5024712;28;20197;-79
2021/11/04 08:02:13;;;;;;;12.17;11.47;;;6.80;99.90;;;;;;5035889;28;20189;-79
2021/11/04 08:04:41;;;;;;;11.80;11.20;;;6.80;99.90;;;;;;5026213;28;20287;-79
2021/11/04 08:07:08;;;;;;;12.17;11.47;;;6.80;99.90;;;;;;5014055;28;20638;-79
2021/11/04 08:09:35;;;;;;;11.83;11.23;;;6.80;99.90;;;;;;5022711;28;20228;-79
2021/11/04 08:12:01;;;;;;;12.20;11.60;;;6.80;99.90;;;;;;5024147;28;20196;-79
2021/11/04 08:14:30;;;;;;;12.40;11.67;;;6.80;99.90;;;;;;5036014;28;20205;-80
2021/11/04 08:16:57;;;;;;;12.20;11.60;;;6.80;99.90;;;;;;5036081;28;20681;-79
2021/11/04 08:19:24;;;;;;;12.00;11.30;;;6.80;99.90;;;;;;5035910;28;20604;-79
2021/11/04 08:21:52;;;;;;;11.87;11.27;;;6.90;99.90;;;;;;5034241;28;20196;-79
2021/11/04 08:24:19;;;;;;;12.13;11.43;;;6.80;99.90;;;;;;5040306;28;20204;-79
2021/11/04 08:26:45;;;;;;;11.60;11.00;;;6.80;99.90;;;;;;5035339;28;20294;-79
2021/11/04 08:29:12;;;;;;;11.53;10.93;;;6.80;99.90;;;;;;5016394;28;20217;-79
2021/11/04 08:31:39;;;;;;;11.77;11.17;;;6.90;99.90;;;;;;5034233;28;20197;-79
2021/11/04 08:34:06;;;;;;;12.67;11.60;;;6.90;99.90;;;;;;5035708;28;20219;-79
2021/11/04 08:36:33;;;;;;;5.43;5.13;;;7.00;99.90;;;;;;5035865;28;20221;-80
2021/11/04 08:39:01;;;;;;;5.90;5.60;;;6.90;99.90;;;;;;5033828;28;20200;-79
2021/11/04 08:41:28;;;;;;;8.13;7.67;;;6.90;99.90;;;;;;5041059;28;20216;-79
2021/11/04 08:43:55;;;;;;;7.47;6.97;;;6.90;99.90;;;;;;5038474;28;20202;-80
2021/11/04 08:46:22;;;;;;;7.30;6.90;;;6.80;99.90;;;;;;5027832;28;20649;-79
2021/11/04 08:48:49;;;;;;;7.30;6.90;;;6.80;99.90;;;;;;5030172;28;20262;-80
2021/11/04 08:51:16;;;;;;;4.67;4.43;;;6.80;99.90;;;;;;5025106;28;20220;-79
2021/11/04 08:53:43;;;;;;;6.70;6.30;;;6.80;99.90;;;;;;5036644;28;20251;-80
2021/11/04 08:56:11;;;;;;;4.17;3.97;;;6.80;99.90;;;;;;5030223;28;20219;-79
2021/11/04 08:58:38;;;;;;;5.80;5.40;;;6.90;99.90;;;;;;5027886;28;20196;-79
2021/11/04 09:01:07;;;;;;;3.63;3.37;;;6.80;99.90;;;;;;5036697;28;20224;-79
2021/11/04 09:03:35;;;;;;;8.37;7.80;;;6.80;99.90;;;;;;5036757;28;20212;-79
2021/11/04 09:06:03;;;;;;;11.07;10.40;;;6.80;99.90;;;;;;5026704;28;20221;-79
2021/11/04 09:08:31;;;;;;;6.30;5.90;;;6.80;99.90;;;;;;5027386;28;20213;-79
2021/11/04 09:10:57;;;;;;;3.80;3.63;;;6.80;99.90;;;;;;5035618;28;20209;-79
2021/11/04 09:13:26;;;;;;;2.90;2.70;;;6.80;99.90;;;;;;5035717;28;20204;-79
2021/11/04 09:15:53;;;;;;;2.70;2.60;;;6.80;99.90;;;;;;5027606;22;20234;-78
2021/11/04 09:18:21;;;;;;;2.60;2.50;;;6.90;99.90;;;;;;5012979;28;20247;-78
2021/11/04 09:20:49;;;;;;;3.17;3.07;;;6.90;99.90;;;;;;5004324;28;20235;-78
2021/11/04 09:23:15;;;;;;;3.77;3.57;;;7.00;99.90;;;;;;5007545;28;20735;-78
2021/11/04 09:25:42;;;;;;;5.40;5.10;;;7.00;99.90;;;;;;5004178;28;20228;-78
2021/11/04 09:28:09;;;;;;;6.40;6.10;;;6.90;99.90;;;;;;4998505;28;20206;-78
2021/11/04 09:30:37;;;;;;;6.70;6.30;;;7.00;99.90;;;;;;4996004;28;20226;-78
2021/11/04 09:33:04;;;;;;;3.10;2.90;;;7.10;99.90;;;;;;4991243;28;20671;-78
2021/11/04 09:35:31;;;;;;;3.50;3.30;;;7.10;99.90;;;;;;5005486;28;20218;-78
2021/11/04 09:37:58;;;;;;;5.50;5.10;;;7.10;99.90;;;;;;5012870;28;20249;-78
2021/11/04 09:40:26;;;;;;;5.87;5.57;;;7.20;99.90;;;;;;5009318;28;20323;-78
2021/11/04 09:42:54;;;;;;;10.73;10.20;;;7.20;99.90;;;;;;5003736;28;20659;-78
2021/11/04 09:45:21;;;;;;;11.80;11.10;;;7.20;99.90;;;;;;5009347;28;20225;-78
2021/11/04 09:47:49;;;;;;;12.20;11.60;;;7.30;99.90;;;;;;5007713;28;20206;-77
2021/11/04 09:50:17;;;;;;;10.90;10.30;;;7.30;99.90;;;;;;5007366;28;20687;-78
2021/11/04 09:52:46;;;;;;;11.30;10.70;;;7.30;99.90;;;;;;5006408;28;20579;-77
2021/11/04 09:55:17;;;;;;;10.93;10.33;;;7.30;99.90;;;;;;5007813;28;20219;-78
2021/11/04 09:57:45;;;;;;;11.00;10.40;;;7.30;99.90;;;;;;5009276;28;20200;-78
2021/11/04 10:00:13;;;;;;;11.10;10.50;;;7.30;99.90;;;;;;5009702;28;20198;-78
2021/11/04 10:02:43;;;;;;;2.40;2.30;;;7.30;99.90;;;;;;5011645;28;20298;-78
2021/11/04 10:05:13;;;;;;;2.60;2.50;;;7.30;99.90;;;;;;5006109;28;20211;-78
2021/11/04 10:07:48;;;;;;;2.60;2.50;;;7.40;99.90;;;;;;5006853;28;20288;-78
2021/11/04 10:10:17;;;;;;;2.50;2.40;;;7.50;99.90;;;;;;5006317;28;20222;-78
2021/11/04 10:13:01;;;;;;;2.90;2.80;;;7.50;99.90;;;;;;4995896;28;20267;-78
2021/11/04 10:15:28;;;;;;;2.80;2.60;;;7.60;99.90;;;;;;4990605;28;20269;-78
2021/11/04 10:18:11;;;;;;;4.03;3.83;;;7.60;99.90;;;;;;5008610;28;20206;-77
2021/11/04 10:20:40;;;;;;;5.50;5.20;;;7.60;99.90;;;;;;4996410;28;20286;-78
2021/11/04 10:23:08;;;;;;;5.20;5.00;;;7.70;99.90;;;;;;5000409;28;20223;-78
2021/11/04 10:25:36;;;;;;;5.43;5.13;;;7.70;99.90;;;;;;5001024;28;20263;-78
2021/11/04 10:28:21;;;;;;;5.20;5.00;;;7.70;99.90;;;;;;4999252;28;20207;-78
2021/11/04 10:30:48;;;;;;;11.77;11.17;;;7.70;99.90;;;;;;5003435;28;20588;-78
2021/11/04 10:33:26;;;;;;;7.93;7.43;;;7.80;99.90;;;;;;5000031;28;20269;-78
2021/11/04 10:36:03;;;;;;;8.43;8.03;;;7.70;99.90;;;;;;4982256;28;20223;-78
2021/11/04 10:38:33;;;;;;;9.20;8.60;;;7.80;99.90;;;;;;4990651;28;20214;-78
2021/11/04 10:41:00;;;;;;;9.67;9.17;;;7.80;99.90;;;;;;4996855;28;20207;-78
2021/11/04 10:43:27;;;;;;;10.40;9.90;;;7.80;99.90;;;;;;4996109;28;20211;-78
2021/11/04 10:46:10;;;;;;;13.03;12.33;;;7.90;99.90;;;;;;5001752;28;20214;-77
2021/11/04 10:48:39;;;;;;;12.00;11.30;;;7.80;99.90;;;;;;5017342;28;20200;-78
2021/11/04 10:51:11;;;;;;;11.60;11.00;;;7.80;99.90;;;;;;5006106;28;20212;-78
2021/11/04 10:53:38;;;;;;;11.43;10.83;;;7.70;99.90;;;;;;5005838;28;20195;-78
2021/11/04 10:56:21;;;;;;;11.60;11.00;;;7.70;99.90;;;;;;5004905;28;20226;-78
2021/11/04 10:59:00;;;;;;;12.10;11.40;;;7.70;99.90;;;;;;4992983;28;20659;-78
2021/11/04 11:01:32;;;;;;;12.40;11.70;;;7.70;99.90;;;;;;5007741;28;20247;-78
2021/11/04 11:04:06;;;;;;;5.57;5.27;;;7.60;99.90;;;;;;5011079;28;20191;-78
2021/11/04 11:06:38;;;;;;;6.20;5.80;;;7.60;99.90;;;;;;5000226;28;20218;-78
2021/11/04 11:09:06;;;;;;;6.93;6.53;;;7.60;99.90;;;;;;5006471;28;20223;-78
2021/11/04 11:11:35;;;;;;;7.47;6.97;;;7.60;99.90;;;;;;5002913;28;20217;-78
2021/11/04 11:14:02;;;;;;;7.77;7.37;;;7.60;99.90;;;;;;4991194;28;20205;-78
2021/11/04 11:16:29;;;;;;;3.40;3.20;;;7.60;99.90;;;;;;4995911;28;20235;-78
2021/11/04 11:18:59;;;;;;;9.80;9.20;;;7.60;99.90;;;;;;4998521;28;20205;-78
2021/11/04 11:21:29;;;;;;;11.30;10.70;;;7.60;99.90;;;;;;4995861;28;20207;-77
2021/11/04 11:23:59;;;;;;;11.40;10.80;;;7.50;99.90;;;;;;5002187;28;20198;-78
2021/11/04 11:26:27;;;;;;;11.63;10.93;;;7.50;99.90;;;;;;4998889;28;20218;-77
2021/11/04 11:28:56;;;;;;;11.63;11.03;;;7.40;99.90;;;;;;5007429;28;20260;-77
2021/11/04 11:31:26;;;;;;;11.50;10.80;;;7.40;99.90;;;;;;5002143;28;20226;-77
2021/11/04 11:34:27;;;;;;;12.03;11.43;;;7.40;99.90;;;;;;5000641;28;20200;-77
2021/11/04 11:37:17;;;;;;;11.93;11.23;;;7.40;99.90;;;;;;4987735;28;20221;-77
2021/11/04 11:39:48;;;;;;;11.63;11.03;;;7.50;99.90;;;;;;4999184;28;20295;-77
2021/11/04 11:42:18;;;;;;;11.93;11.33;;;7.50;99.90;;;;;;5009889;28;20207;-77
2021/11/04 11:44:56;;;;;;;11.57;10.93;;;7.60;99.90;;;;;;5009511;28;20266;-77
2021/11/04 11:47:37;;;;;;;11.70;11.00;;;7.70;99.90;;;;;;5014660;28;20227;-77
2021/11/04 11:50:24;;;;;;;11.57;10.97;;;7.80;99.90;;;;;;5013710;28;20214;-77
2021/11/04 11:52:54;;;;;;;12.20;11.50;;;7.90;99.90;;;;;;4997500;28;20576;-77
2021/11/04 11:55:24;;;;;;;12.17;11.37;;;8.10;99.90;;;;;;5018602;28;20282;-78
2021/11/04 11:58:20;;;;;;;12.07;11.40;;;8.20;99.90;;;;;;5008056;28;20196;-78
2021/11/04 12:00:53;;;;;;;11.60;11.00;;;8.30;99.90;;;;;;5021982;28;20222;-78
2021/11/04 12:03:48;;;;;;;11.80;11.10;;;8.30;99.90;;;;;;5011259;28;20207;-78
2021/11/04 12:06:51;;;;;;;11.40;10.80;;;8.30;99.90;;;;;;4965601;28;20316;-78
2021/11/04 12:09:43;;;;;;;12.73;12.03;;;8.30;99.90;;;;;;5017217;28;20578;-79
2021/11/04 12:12:45;;;;;;;12.50;11.80;;;8.20;99.90;;;;;;5022148;28;20203;-78
2021/11/04 12:15:13;;;;;;;12.43;11.73;;;8.20;99.90;;;;;;5008851;28;20204;-79
2021/11/04 12:17:40;;;;;;;12.67;11.97;;;8.30;99.90;;;;;;4999386;28;20207;-79
2021/11/04 12:20:08;;;;;;;12.30;11.60;;;8.30;99.90;;;;;;4986243;28;20207;-79
2021/11/04 12:22:38;;;;;;;12.40;11.80;;;8.40;99.90;;;;;;5023394;28;20207;-79
2021/11/04 12:25:07;;;;;;;12.80;12.10;;;8.50;99.90;;;;;;5011073;28;20200;-79
2021/11/04 12:27:39;;;;;;;12.60;11.90;;;8.50;99.90;;;;;;4996794;28;20727;-79
2021/11/04 12:30:19;;;;;;;13.00;12.30;;;8.70;99.90;;;;;;5010305;28;20219;-78
2021/11/04 12:32:57;;;;;;;12.87;12.17;;;8.80;99.90;;;;;;5012394;28;20192;-79
2021/11/04 12:35:24;;;;;;;13.20;12.40;;;8.80;99.90;;;;;;5011207;28;20294;-79
2021/11/04 12:37:51;;;;;;;13.20;12.40;;;9.00;99.90;;;;;;5006289;28;20255;-79
2021/11/04 12:40:18;;;;;;;12.97;12.27;;;9.00;99.90;;;;;;4997457;28;20201;-79
2021/11/04 12:42:46;;;;;;;13.33;12.53;;;9.20;99.90;;;;;;4996484;28;20258;-79
2021/11/04 12:45:22;;;;;;;8.43;7.93;;;9.10;99.90;;;;;;5004341;28;20189;-80
2021/11/04 12:47:59;;;;;;;3.87;3.57;;;9.10;99.90;;;;;;5003177;28;20295;-79
2021/11/04 12:50:26;;;;;;;12.70;11.90;;;9.10;99.90;;;;;;5018134;28;20230;-78